Time;durP1;ratioP1;P1;durP2;ratioP2;P2;SDS_P1;SDS_P2;PMS_P1;PMS_P2;Temp;Humidity;BMP_temperature;BMP_pressure;BME280_temperature;BME280_humidity;BME280_pressure;Samples;Min_cycle;Max_cycle;Signal;HPM_P1;HPM_P2
2023/07/11 00:02:06;;;;;;;;;;;;;;;22.56;100.00;101010.72;5096978;28;20449;-73
2023/07/11 00:04:33;;;;;;;;;;;;;;;22.71;100.00;101027.94;5078796;28;19912;-72
2023/07/11 00:06:59;;;;;;;;;;;;;;;22.81;100.00;101034.25;5078144;28;19942;-72
2023/07/11 00:12:28;;;;;;;;;;;;;;;22.58;100.00;101038.22;5096820;28;19919;-71
2023/07/11 00:14:54;;;;;;;;;;;;;;;22.39;100.00;101025.53;5077942;28;19907;-72
2023/07/11 00:17:19;;;;;;;;;;;;;;;22.17;100.00;101029.47;5096794;28;20327;-72
2023/07/11 00:19:46;;;;;;;;;;;;;;;22.33;100.00;101027.63;5096884;28;19915;-72
2023/07/11 00:25:14;;;;;;;;;;;;;;;22.32;100.00;101024.19;5096303;28;19915;-71
2023/07/11 00:27:39;;;;;;;;;;;;;;;22.50;100.00;101030.06;5077747;28;19911;-72
2023/07/11 00:30:05;;;;;;;;;;;;;;;22.45;100.00;101024.31;5078027;28;20285;-72
2023/07/11 00:32:30;;;;;;;;;;;;;;;22.87;100.00;101026.91;5096508;28;20019;-72
2023/07/11 00:37:58;;;;;;;;;;;;;;;22.57;100.00;101004.59;5096094;28;19930;-72
2023/07/11 00:43:26;;;;;;;;;;;;;;;22.50;100.00;101005.91;5095866;28;19915;-71
2023/07/11 00:48:57;;;;;;;;;;;;;;;22.45;100.00;100998.38;5086574;28;20021;-71
2023/07/11 00:54:29;;;;;;;;;;;;;;;22.27;100.00;100995.16;5075469;28;19947;-72
2023/07/11 00:59:56;;;;;;;;;;;;;;;22.18;100.00;100997.47;5075468;28;20409;-71
2023/07/11 01:02:23;;;;;;;;;;;;;;;22.24;100.00;100992.72;5074696;28;20063;-70
2023/07/11 01:04:49;;;;;;;;;;;;;;;22.12;100.00;100990.06;5060061;28;20359;-71
2023/07/11 01:07:16;;;;;;;;;;;;;;;22.41;100.00;100981.34;5083010;28;19919;-70
2023/07/11 01:09:42;;;;;;;;;;;;;;;21.91;100.00;100975.75;5079875;28;19912;-71
2023/07/11 01:12:12;;;;;;;;;;;;;;;22.36;100.00;100988.59;5075120;28;19959;-70
2023/07/11 01:14:38;;;;;;;;;;;;;;;22.15;100.00;100980.34;5075367;28;19913;-70
2023/07/11 01:17:23;;;;;;;;;;;;;;;21.90;100.00;100982.72;5075475;28;20282;-71
2023/07/11 01:19:49;;;;;;;;;;;;;;;21.98;100.00;101003.81;5074404;28;20006;-70
2023/07/11 01:22:14;;;;;;;;;;;;;;;22.05;100.00;101028.44;5075313;28;19967;-71
2023/07/11 01:24:39;;;;;;;;;;;;;;;21.94;100.00;101020.47;5056195;28;20343;-72
2023/07/11 01:27:05;;;;;;;;;;;;;;;21.67;100.00;101029.75;5074417;28;19963;-72
2023/07/11 01:29:30;;;;;;;;;;;;;;;22.00;100.00;101043.44;5056509;28;19919;-72
2023/07/11 01:31:55;;;;;;;;;;;;;;;21.87;100.00;101039.84;5056499;28;19913;-72
2023/07/11 01:34:20;;;;;;;;;;;;;;;22.00;100.00;101048.59;5074889;28;19916;-72
2023/07/11 01:39:48;;;;;;;;;;;;;;;22.02;100.00;101053.69;5074953;28;19919;-72
2023/07/11 01:45:16;;;;;;;;;;;;;;;22.01;100.00;101064.97;5074591;28;19919;-71
2023/07/11 01:47:42;;;;;;;;;;;;;;;21.91;100.00;101048.28;5055879;28;20341;-72
2023/07/11 01:50:08;;;;;;;;;;;;;;;22.06;100.00;101066.38;5092363;28;19930;-71
2023/07/11 01:52:34;;;;;;;;;;;;;;;21.96;100.00;101048.88;5094723;28;19958;-71
2023/07/11 01:54:59;;;;;;;;;;;;;;;22.04;100.00;101050.09;5093936;28;19908;-71
2023/07/11 01:57:24;;;;;;;;;;;;;;;22.04;100.00;101057.03;5075533;28;19912;-71
2023/07/11 01:59:50;;;;;;;;;;;;;;;22.00;100.00;101045.19;5094133;28;19916;-71
2023/07/11 02:02:15;;;;;;;;;;;;;;;21.91;100.00;101040.50;5076353;28;19938;-72
2023/07/11 02:04:40;;;;;;;;;;;;;;;22.23;100.00;101042.06;5094243;28;19923;-71
2023/07/11 02:10:08;;;;;;;;;;;;;;;21.90;100.00;101038.84;5094790;28;19915;-72
2023/07/11 02:12:34;;;;;;;;;;;;;;;22.20;100.00;101040.50;5094271;28;19912;-71
2023/07/11 02:14:59;;;;;;;;;;;;;;;21.95;100.00;101029.06;5094025;28;19946;-71
2023/07/11 02:17:25;;;;;;;;;;;;;;;22.04;100.00;101029.38;5075632;28;20010;-71
2023/07/11 02:19:50;;;;;;;;;;;;;;;21.72;100.00;101025.19;5075121;28;19912;-71
2023/07/11 02:22:16;;;;;;;;;;;;;;;22.03;100.00;101038.06;5075818;28;19961;-70
2023/07/11 02:24:41;;;;;;;;;;;;;;;21.53;100.00;101027.97;5093310;28;20385;-71
2023/07/11 02:27:07;;;;;;;;;;;;;;;21.58;100.00;101035.47;5076133;28;19987;-73
2023/07/11 02:32:35;;;;;;;;;;;;;;;21.59;100.00;101061.28;5094166;28;19962;-72
2023/07/11 02:35:00;;;;;;;;;;;;;;;21.94;100.00;101064.50;5075617;28;19978;-73
2023/07/11 02:37:26;;;;;;;;;;;;;;;21.72;100.00;101074.38;5094165;28;19998;-72
2023/07/11 02:39:51;;;;;;;;;;;;;;;21.89;100.00;101082.03;5093558;28;19916;-71
2023/07/11 02:45:19;;;;;;;;;;;;;;;21.90;100.00;101090.66;5093894;28;19962;-72
2023/07/11 02:50:47;;;;;;;;;;;;;;;21.71;100.00;101087.41;5092120;28;20365;-70
2023/07/11 02:56:15;;;;;;;;;;;;;;;21.90;100.00;101091.50;5093883;28;19918;-74
2023/07/11 02:58:41;;;;;;;;;;;;;;;21.56;100.00;101078.75;5093470;28;19912;-74
2023/07/11 03:01:06;;;;;;;;;;;;;;;21.68;100.00;101103.94;5093127;28;19912;-73
2023/07/11 03:03:31;;;;;;;;;;;;;;;21.19;100.00;101097.19;5074816;28;20019;-70
2023/07/11 03:05:57;;;;;;;;;;;;;;;21.25;100.00;101114.97;5093071;28;19916;-71
2023/07/11 03:08:25;;;;;;;;;;;;;;;21.48;100.00;101143.88;5073786;28;20464;-70
2023/07/11 03:10:50;;;;;;;;;;;;;;;21.51;100.00;101148.06;5074412;28;19935;-71
2023/07/11 03:13:15;;;;;;;;;;;;;;;21.55;100.00;101165.91;5093193;28;20369;-70
2023/07/11 03:15:41;;;;;;;;;;;;;;;21.50;100.00;101180.03;5092928;28;20321;-70
2023/07/11 03:18:07;;;;;;;;;;;;;;;21.45;100.00;101192.38;5074730;28;19916;-71
2023/07/11 03:20:39;;;;;;;;;;;;;;;21.26;100.00;101196.84;5092563;28;19920;-71
2023/07/11 03:26:07;;;;;;;;;;;;;;;22.30;100.00;101235.19;5093427;28;19918;-73
2023/07/11 03:28:32;;;;;;;;;;;;;;;21.39;100.00;101203.88;5093206;28;20010;-69
2023/07/11 03:30:58;;;;;;;;;;;;;;;21.75;100.00;101213.19;5092928;28;19912;-70
2023/07/11 03:33:23;;;;;;;;;;;;;;;21.44;100.00;101227.78;5093009;28;19923;-71
2023/07/11 03:35:52;;;;;;;;;;;;;;;21.23;100.00;101233.25;5092884;28;19912;-71
2023/07/11 03:38:18;;;;;;;;;;;;;;;20.99;100.00;101257.75;5074469;28;19919;-72
2023/07/11 03:40:43;;;;;;;;;;;;;;;21.00;100.00;101304.22;5074805;28;19912;-72
2023/07/11 03:43:08;;;;;;;;;;;;;;;20.63;100.00;101349.13;5074387;28;19912;-69
2023/07/11 03:45:34;;;;;;;;;;;;;;;21.14;100.00;101418.22;5074341;28;19919;-71
2023/07/11 03:47:59;;;;;;;;;;;;;;;21.58;100.00;101466.06;5092630;28;19959;-71
2023/07/11 03:50:24;;;;;;;;;;;;;;;21.48;100.00;101482.13;5092316;28;19916;-70
2023/07/11 03:55:52;;;;;;;;;;;;;;;21.64;100.00;101560.72;5093255;28;19919;-71
2023/07/11 03:58:17;;;;;;;;;;;;;;;21.40;100.00;101575.69;5092034;28;19908;-71
2023/07/11 04:00:45;;;;;;;;;;;;;;;21.72;100.00;101612.97;5074492;28;19912;-72
2023/07/11 04:03:10;;;;;;;;;;;;;;;21.22;100.00;101602.41;5092625;28;19908;-71
2023/07/11 04:05:35;;;;;;;;;;;;;;;21.64;100.00;101633.22;5074438;28;19912;-72
2023/07/11 04:08:00;;;;;;;;;;;;;;;21.57;100.00;101658.56;5092138;28;19916;-70
2023/07/11 04:10:26;;;;;;;;;;;;;;;21.87;100.00;101666.66;5092243;28;20015;-73
2023/07/11 04:15:54;;;;;;;;;;;;;;;21.48;100.00;101637.44;5092665;28;20392;-73
2023/07/11 04:18:19;;;;;;;;;;;;;;;21.43;100.00;101652.34;5073989;28;19912;-70
2023/07/11 04:20:45;;;;;;;;;;;;;;;22.01;100.00;101668.59;5075409;28;19919;-75
2023/07/11 04:23:11;;;;;;;;;;;;;;;21.78;100.00;101648.09;5075963;28;19912;-73
2023/07/11 04:25:36;;;;;;;;;;;;;;;21.84;100.00;101640.06;5093677;28;20388;-75
2023/07/11 04:31:04;;;;;;;;;;;;;;;21.92;100.00;101636.22;5092247;28;20298;-71
2023/07/11 04:36:32;;;;;;;;;;;;;;;22.07;100.00;101608.69;5092221;28;19974;-71
2023/07/11 04:42:00;;;;;;;;;;;;;;;22.49;100.00;101621.28;5093592;28;20381;-69
2023/07/11 04:44:25;;;;;;;;;;;;;;;22.74;100.00;101588.03;5095770;28;19912;-73
2023/07/11 04:46:51;;;;;;;;;;;;;;;22.12;100.00;101566.13;5095625;28;20003;-71
2023/07/11 04:49:16;;;;;;;;;;;;;;;22.24;100.00;101580.22;5096751;28;19912;-72
2023/07/11 04:51:41;;;;;;;;;;;;;;;22.34;100.00;101576.25;5095708;28;20394;-71
2023/07/11 04:54:06;;;;;;;;;;;;;;;22.41;100.00;101569.81;5095791;28;19916;-70
2023/07/11 04:56:32;;;;;;;;;;;;;;;22.19;100.00;101564.88;5095496;28;19935;-70
2023/07/11 04:58:58;;;;;;;;;;;;;;;22.27;100.00;101567.09;5076781;28;20007;-70
2023/07/11 05:01:23;;;;;;;;;;;;;;;22.59;100.00;101568.06;5076677;28;19923;-70
2023/07/11 05:06:51;;;;;;;;;;;;;;;22.67;100.00;101568.50;5095531;28;19927;-69
2023/07/11 05:09:17;;;;;;;;;;;;;;;23.19;100.00;101537.06;5076993;28;19912;-70
2023/07/11 05:11:42;;;;;;;;;;;;;;;22.95;100.00;101488.28;5077239;28;19912;-70
2023/07/11 05:14:07;;;;;;;;;;;;;;;22.95;100.00;101480.47;5095669;28;19934;-70
2023/07/11 05:19:35;;;;;;;;;;;;;;;23.05;100.00;101448.75;5095324;28;19931;-70
2023/07/11 05:22:01;;;;;;;;;;;;;;;23.35;100.00;101441.03;5076394;28;20370;-70
2023/07/11 05:24:26;;;;;;;;;;;;;;;23.71;100.00;101396.50;5095064;28;20369;-69
2023/07/11 05:26:52;;;;;;;;;;;;;;;24.50;100.00;101341.25;5076855;28;20224;-70
2023/07/11 05:29:17;;;;;;;;;;;;;;;24.15;100.00;101280.25;5095153;28;19959;-69
2023/07/11 05:34:45;;;;;;;;;;;;;;;24.28;100.00;101220.53;5095008;28;19965;-71
2023/07/11 05:40:13;;;;;;;;;;;;;;;24.31;100.00;101220.31;5103456;28;19919;-70
2023/07/11 05:45:44;;;;;;;;;;;;;;;24.23;100.00;101205.22;5094988;28;20019;-70
2023/07/11 05:48:10;;;;;;;;;;;;;;;24.84;100.00;101189.84;5075996;28;19912;-70
2023/07/11 05:50:35;;;;;;;;;;;;;;;24.19;100.00;101169.94;5094180;28;20283;-69
2023/07/11 05:53:00;;;;;;;;;;;;;;;24.61;100.00;101174.06;5092968;28;20358;-70
2023/07/11 05:58:29;;;;;;;;;;;;;;;24.45;100.00;101153.47;5094627;28;19915;-69
2023/07/11 06:00:55;;;;;;;;;;;;;;;24.57;100.00;101157.84;5094250;28;19912;-70
2023/07/11 06:03:22;;;;;;;;;;;;;;;24.62;100.00;101147.13;5076407;28;19961;-70
2023/07/11 06:05:48;;;;;;;;;;;;;;;24.40;100.00;101132.16;5076075;28;19912;-70
2023/07/11 06:08:13;;;;;;;;;;;;;;;24.60;100.00;101131.63;5094255;28;20285;-69
2023/07/11 06:10:39;;;;;;;;;;;;;;;25.77;100.00;101122.47;5094653;28;19912;-70
2023/07/11 06:13:04;;;;;;;;;;;;;;;25.99;100.00;101103.47;5094213;28;19916;-70
2023/07/11 06:15:30;;;;;;;;;;;;;;;26.46;100.00;101045.16;5075349;28;19965;-70
2023/07/11 06:17:55;;;;;;;;;;;;;;;26.62;100.00;101022.16;5094089;28;19927;-70
2023/07/11 06:23:23;;;;;;;;;;;;;;;26.05;100.00;100985.69;5094374;28;19970;-72
2023/07/11 06:25:48;;;;;;;;;;;;;;;25.90;100.00;100976.44;5093624;28;19912;-72
2023/07/11 06:28:13;;;;;;;;;;;;;;;26.63;100.00;100969.00;5075512;28;20285;-71
2023/07/11 06:30:42;;;;;;;;;;;;;;;26.96;100.00;100968.16;5075167;28;19993;-72
2023/07/11 06:36:11;;;;;;;;;;;;;;;28.12;100.00;100943.56;5094036;28;20423;-72
2023/07/11 06:38:36;;;;;;;;;;;;;;;27.67;100.00;100934.34;5075422;28;19908;-73
2023/07/11 06:41:02;;;;;;;;;;;;;;;27.87;100.00;100933.47;5093383;28;20010;-72
2023/07/11 06:43:28;;;;;;;;;;;;;;;28.20;100.00;100928.03;5093954;28;19913;-72
2023/07/11 06:48:57;;;;;;;;;;;;;;;27.76;100.00;100932.75;5093648;28;19958;-71
2023/07/11 06:51:22;;;;;;;;;;;;;;;28.02;100.00;100926.16;5074763;28;19927;-72
2023/07/11 06:53:49;;;;;;;;;;;;;;;27.86;100.00;100921.38;5075273;28;19916;-72
2023/07/11 06:56:14;;;;;;;;;;;;;;;27.69;100.00;100911.50;5093322;28;19919;-72
2023/07/11 06:58:39;;;;;;;;;;;;;;;27.91;100.00;100934.88;5075180;28;19912;-72
2023/07/11 07:01:06;;;;;;;;;;;;;;;28.44;100.00;100937.34;5093129;28;19915;-72
2023/07/11 07:03:31;;;;;;;;;;;;;;;28.20;100.00;100930.66;5093350;28;20027;-72
2023/07/11 07:06:02;;;;;;;;;;;;;;;28.29;100.00;100929.84;5074323;28;20448;-72
2023/07/11 07:11:30;;;;;;;;;;;;;;;29.15;100.00;100915.28;5093408;28;20391;-72
2023/07/11 07:13:56;;;;;;;;;;;;;;;29.68;100.00;100911.19;5093137;28;19957;-72
2023/07/11 07:16:21;;;;;;;;;;;;;;;29.97;100.00;100892.78;5074969;28;19970;-72
2023/07/11 07:18:46;;;;;;;;;;;;;;;30.05;100.00;100891.06;5074904;28;19912;-72
2023/07/11 07:24:14;;;;;;;;;;;;;;;30.66;100.00;100892.09;5093252;28;20385;-72
2023/07/11 07:29:42;;;;;;;;;;;;;;;31.02;100.00;100794.91;5093172;28;20019;-71
2023/07/11 07:32:07;;;;;;;;;;;;;;;31.38;100.00;100828.84;5092792;28;19968;-71
2023/07/11 07:34:32;;;;;;;;;;;;;;;31.05;100.00;100818.25;5074589;28;19912;-71
2023/07/11 07:36:58;;;;;;;;;;;;;;;31.35;100.00;100783.63;5074018;28;19913;-72
2023/07/11 07:42:26;;;;;;;;;;;;;;;31.14;100.00;100754.25;5092730;28;19931;-71
2023/07/11 07:44:51;;;;;;;;;;;;;;;30.74;100.00;100747.69;5092476;28;20366;-71
2023/07/11 07:50:20;;;;;;;;;;;;;;;31.89;100.00;100741.09;5092823;28;20297;-72
2023/07/11 07:55:47;;;;;;;;;;;;;;;31.97;100.00;100701.66;5092494;28;19923;-71
2023/07/11 07:58:14;;;;;;;;;;;;;;;32.43;100.00;100732.63;5092130;28;19913;-71
2023/07/11 08:00:40;;;;;;;;;;;;;;;32.48;100.00;100707.63;5092305;28;19920;-72
2023/07/11 08:03:05;;;;;;;;;;;;;;;32.38;100.00;100703.34;5092507;28;19912;-72
2023/07/11 08:08:33;;;;;;;;;;;;;;;32.34;100.00;100666.97;5092587;28;19919;-72
2023/07/11 08:14:01;;;;;;;;;;;;;;;32.50;100.00;100645.06;5092710;28;19957;-72
2023/07/11 08:16:27;;;;;;;;;;;;;;;32.34;100.00;100643.25;5092427;28;20399;-72
2023/07/11 08:18:53;;;;;;;;;;;;;;;32.98;100.00;100648.41;5096415;28;19912;-72
2023/07/11 08:21:18;;;;;;;;;;;;;;;33.10;100.00;100649.69;5078015;28;19912;-72
2023/07/11 08:23:43;;;;;;;;;;;;;;;32.66;100.00;100647.69;5096532;28;20370;-71
2023/07/11 08:29:13;;;;;;;;;;;;;;;32.57;100.00;100640.75;5095836;28;19919;-72
2023/07/11 08:31:38;;;;;;;;;;;;;;;32.51;100.00;100634.38;5096420;28;20007;-71
2023/07/11 08:34:03;;;;;;;;;;;;;;;32.48;100.00;100647.06;5096252;28;20002;-72
2023/07/11 08:36:29;;;;;;;;;;;;;;;33.13;100.00;100638.81;5077579;28;19961;-71
2023/07/11 08:38:54;;;;;;;;;;;;;;;32.83;100.00;100636.09;5077153;28;19912;-72
2023/07/11 08:41:38;;;;;;;;;;;;;;;32.85;100.00;100627.03;5095515;28;20008;-71
2023/07/11 08:44:06;;;;;;;;;;;;;;;33.18;100.00;100633.84;5077546;28;19912;-71
2023/07/11 08:49:47;;;;;;;;;;;;;;;32.76;100.00;100632.50;5096027;28;19914;-71
2023/07/11 08:55:24;;;;;;;;;;;;;;;32.97;100.00;100633.59;5095735;28;19980;-71
2023/07/11 08:58:01;;;;;;;;;;;;;;;32.86;100.00;100626.03;5095543;28;19942;-71
2023/07/11 09:00:28;;;;;;;;;;;;;;;32.99;100.00;100636.91;5096013;28;20347;-71
2023/07/11 09:02:55;;;;;;;;;;;;;;;32.70;100.00;100625.28;5095611;28;19912;-71
2023/07/11 09:08:24;;;;;;;;;;;;;;;33.43;100.00;100628.44;5095709;28;19918;-72
2023/07/11 09:10:58;;;;;;;;;;;;;;;33.41;100.00;100638.34;5077095;28;20260;-72
2023/07/11 09:13:33;;;;;;;;;;;;;;;34.01;100.00;100639.31;5077272;28;19916;-72
2023/07/11 09:16:10;;;;;;;;;;;;;;;34.01;100.00;100637.47;5077391;28;19942;-72
2023/07/11 09:18:51;;;;;;;;;;;;;;;33.08;100.00;100627.94;5095383;28;19964;-72
2023/07/11 09:21:19;;;;;;;;;;;;;;;33.72;100.00;100642.63;5095039;28;20002;-72
2023/07/11 09:26:49;;;;;;;;;;;;;;;34.00;100.00;100635.84;5095258;28;19951;-70
2023/07/11 09:29:15;;;;;;;;;;;;;;;33.37;100.00;100621.22;5076464;28;19916;-71
2023/07/11 09:31:42;;;;;;;;;;;;;;;33.89;100.00;100633.56;5094876;28;19938;-71
2023/07/11 09:34:26;;;;;;;;;;;;;;;33.70;100.00;100617.41;5095009;28;19912;-72
2023/07/11 09:36:52;;;;;;;;;;;;;;;33.65;100.00;100620.59;5095101;28;19938;-72
2023/07/11 09:39:27;;;;;;;;;;;;;;;33.47;100.00;100622.66;5094847;28;20354;-71
2023/07/11 09:44:59;;;;;;;;;;;;;;;34.35;100.00;100623.78;5094516;28;19981;-71
2023/07/11 09:47:24;;;;;;;;;;;;;;;33.83;100.00;100620.28;5094691;28;19961;-73
2023/07/11 09:49:50;;;;;;;;;;;;;;;33.68;100.00;100614.94;5076377;28;20336;-72
2023/07/11 09:52:21;;;;;;;;;;;;;;;34.30;100.00;100626.16;5094744;28;19916;-71
2023/07/11 09:54:47;;;;;;;;;;;;;;;34.79;100.00;100642.34;5094427;28;20366;-72
2023/07/11 09:57:12;;;;;;;;;;;;;;;34.21;100.00;100631.72;5095805;28;19927;-71
2023/07/11 09:59:42;;;;;;;;;;;;;;;34.45;100.00;100628.81;5096671;28;19951;-71
2023/07/11 10:02:14;;;;;;;;;;;;;;;34.73;100.00;100637.78;5095653;28;19912;-72
2023/07/11 10:04:41;;;;;;;;;;;;;;;33.87;100.00;100635.56;5094616;28;20398;-71
2023/07/11 10:07:12;;;;;;;;;;;;;;;34.38;100.00;100631.38;5076147;28;20350;-72
2023/07/11 10:12:42;;;;;;;;;;;;;;;34.55;100.00;100624.94;5094398;28;20377;-71
2023/07/11 10:15:12;;;;;;;;;;;;;;;35.06;100.00;100630.34;5075454;28;20002;-71
2023/07/11 10:17:41;;;;;;;;;;;;;;;34.89;100.00;100624.38;5094779;28;19912;-72
2023/07/11 10:20:11;;;;;;;;;;;;;;;34.59;100.00;100622.75;5093680;28;19918;-71
2023/07/11 10:22:37;;;;;;;;;;;;;;;34.64;100.00;100631.78;5075661;28;20002;-71
2023/07/11 10:25:26;;;;;;;;;;;;;;;33.86;100.00;100620.75;5093945;28;20426;-72
2023/07/11 10:27:54;;;;;;;;;;;;;;;34.70;100.00;100619.66;5093848;28;19947;-71
2023/07/11 10:30:21;;;;;;;;;;;;;;;34.54;100.00;100611.91;5093992;28;19912;-71
2023/07/11 10:33:13;;;;;;;;;;;;;;;34.44;100.00;100600.75;5094379;28;20377;-71
2023/07/11 10:35:39;;;;;;;;;;;;;;;35.08;100.00;100621.22;5090019;28;20362;-72
2023/07/11 10:38:06;;;;;;;;;;;;;;;34.86;100.00;100622.91;5092978;28;19947;-72
2023/07/11 10:43:37;;;;;;;;;;;;;;;34.54;100.00;100596.88;5093321;28;20282;-71
2023/07/11 10:46:05;;;;;;;;;;;;;;;35.17;100.00;100608.69;5092907;28;19923;-72
2023/07/11 10:48:34;;;;;;;;;;;;;;;34.92;100.00;100602.88;5075000;28;19912;-72
2023/07/11 10:51:01;;;;;;;;;;;;;;;34.83;100.00;100596.84;5093397;28;20400;-72
2023/07/11 10:53:34;;;;;;;;;;;;;;;34.77;100.00;100589.66;5093494;28;20409;-72
2023/07/11 10:59:02;;;;;;;;;;;;;;;35.11;100.00;100598.84;5093569;28;20428;-71
2023/07/11 11:01:46;;;;;;;;;;;;;;;35.60;100.00;100613.88;5092950;28;19916;-72
2023/07/11 11:04:18;;;;;;;;;;;;;;;34.98;100.00;100596.88;5093274;28;19912;-72
2023/07/11 11:09:58;;;;;;;;;;;;;;;35.08;100.00;100594.78;5093041;28;19935;-72
2023/07/11 11:12:42;;;;;;;;;;;;;;;35.04;100.00;100593.50;5074856;28;19916;-71
2023/07/11 11:15:13;;;;;;;;;;;;;;;35.32;100.00;100583.81;5092947;28;19919;-71
2023/07/11 11:17:55;;;;;;;;;;;;;;;36.19;100.00;100587.91;5074769;28;20256;-71
2023/07/11 11:23:46;;;;;;;;;;;;;;;35.47;100.00;100587.28;5093100;28;19936;-71
2023/07/11 11:26:14;;;;;;;;;;;;;;;35.72;100.00;100570.00;5063680;28;19912;-71
2023/07/11 11:31:53;;;;;;;;;;;;;;;35.55;100.00;100559.84;5092821;28;20001;-72
2023/07/11 11:34:33;;;;;;;;;;;;;;;35.68;100.00;100560.78;5092765;28;19919;-72
2023/07/11 11:37:13;;;;;;;;;;;;;;;35.72;100.00;100558.56;5074358;28;19912;-72
2023/07/11 11:39:42;;;;;;;;;;;;;;;35.24;100.00;100549.53;5074124;28;19916;-71
2023/07/11 11:45:18;;;;;;;;;;;;;;;35.99;100.00;100563.13;5092867;28;19919;-72
2023/07/11 11:50:46;;;;;;;;;;;;;;;35.43;100.00;100550.75;5092077;28;19931;-72
2023/07/11 11:53:17;;;;;;;;;;;;;;;35.21;100.00;100547.28;5092611;28;20346;-72
2023/07/11 11:55:55;;;;;;;;;;;;;;;35.68;100.00;100534.31;5092176;28;20285;-71
2023/07/11 11:58:21;;;;;;;;;;;;;;;35.70;100.00;100540.22;5092215;28;19908;-71
2023/07/11 12:00:50;;;;;;;;;;;;;;;35.74;100.00;100538.84;5092981;28;19918;-72
2023/07/11 12:03:26;;;;;;;;;;;;;;;35.97;100.00;100537.81;5092417;28;19979;-71
2023/07/11 12:05:52;;;;;;;;;;;;;;;35.52;100.00;100533.75;5092361;28;20352;-72
2023/07/11 12:08:24;;;;;;;;;;;;;;;35.25;100.00;100531.84;5091958;28;19939;-72
2023/07/11 12:11:07;;;;;;;;;;;;;;;35.46;100.00;100539.81;5074290;28;19943;-71
2023/07/11 12:13:33;;;;;;;;;;;;;;;35.74;100.00;100538.03;5091834;28;20002;-71
2023/07/11 12:16:06;;;;;;;;;;;;;;;35.46;100.00;100531.88;5092463;28;19919;-72
2023/07/11 12:21:41;;;;;;;;;;;;;;;36.05;100.00;100538.50;5092661;28;19981;-72
2023/07/11 12:24:30;;;;;;;;;;;;;;;35.10;100.00;100523.16;5073855;28;19908;-72
2023/07/11 12:26:55;;;;;;;;;;;;;;;35.98;100.00;100526.19;5072592;28;19916;-72
2023/07/11 12:29:38;;;;;;;;;;;;;;;35.39;100.00;100499.22;5073689;28;20445;-71
2023/07/11 12:32:22;;;;;;;;;;;;;;;35.64;100.00;100513.69;5092347;28;20007;-72
2023/07/11 12:34:53;;;;;;;;;;;;;;;35.64;100.00;100501.28;5073680;28;19916;-71
2023/07/11 12:37:19;;;;;;;;;;;;;;;35.77;100.00;100503.22;5092314;28;19916;-72
2023/07/11 12:39:53;;;;;;;;;;;;;;;36.32;100.00;100505.00;5091461;28;20442;-72
2023/07/11 12:45:26;;;;;;;;;;;;;;;35.51;100.00;100506.50;5091911;28;19955;-72
2023/07/11 12:48:24;;;;;;;;;;;;;;;35.05;100.00;100513.13;5092693;28;19919;-72
2023/07/11 12:50:49;;;;;;;;;;;;;;;35.56;100.00;100506.72;5051174;28;20298;-72
2023/07/11 12:56:17;;;;;;;;;;;;;;;35.19;100.00;100503.50;5092080;28;19939;-72
2023/07/11 12:58:42;;;;;;;;;;;;;;;36.05;100.00;100482.03;5073579;28;19916;-72
2023/07/11 13:01:15;;;;;;;;;;;;;;;36.11;100.00;100476.75;5092107;28;19919;-72
2023/07/11 13:03:40;;;;;;;;;;;;;;;36.09;100.00;100478.78;5094236;28;20492;-72
2023/07/11 13:06:22;;;;;;;;;;;;;;;36.48;100.00;100468.44;5077167;28;19999;-72
2023/07/11 13:08:47;;;;;;;;;;;;;;;35.89;100.00;100461.13;5060499;28;19919;-72
2023/07/11 13:14:15;;;;;;;;;;;;;;;35.49;100.00;100460.03;5095651;28;19945;-72
2023/07/11 13:16:41;;;;;;;;;;;;;;;35.70;100.00;100468.75;5094456;28;19907;-71
2023/07/11 13:19:13;;;;;;;;;;;;;;;35.59;100.00;100458.69;5077177;28;19912;-72
2023/07/11 13:24:41;;;;;;;;;;;;;;;35.81;100.00;100455.97;5095203;28;20434;-71
2023/07/11 13:27:14;;;;;;;;;;;;;;;36.19;100.00;100455.41;5094974;28;20003;-69
2023/07/11 13:29:41;;;;;;;;;;;;;;;35.74;100.00;100467.34;5076762;28;19923;-72
2023/07/11 13:32:12;;;;;;;;;;;;;;;35.72;100.00;100458.78;5076612;28;19912;-71
2023/07/11 13:34:37;;;;;;;;;;;;;;;35.58;100.00;100457.06;5076743;28;19966;-71
2023/07/11 13:37:07;;;;;;;;;;;;;;;35.89;100.00;100469.91;5076832;28;19912;-72
2023/07/11 13:39:43;;;;;;;;;;;;;;;36.39;100.00;100479.34;5094920;28;19919;-72
2023/07/11 13:45:16;;;;;;;;;;;;;;;36.11;100.00;100481.25;5095039;28;19919;-72
2023/07/11 13:47:43;;;;;;;;;;;;;;;35.77;100.00;100457.38;5094396;28;19912;-72
2023/07/11 13:50:16;;;;;;;;;;;;;;;36.13;100.00;100469.44;5076889;28;19912;-71
2023/07/11 13:52:48;;;;;;;;;;;;;;;35.46;100.00;100471.00;5076216;28;19952;-71
2023/07/11 13:55:19;;;;;;;;;;;;;;;36.01;100.00;100467.56;5094563;28;19919;-72
2023/07/11 13:57:44;;;;;;;;;;;;;;;35.75;100.00;100452.28;5094365;28;19913;-72
2023/07/11 14:00:11;;;;;;;;;;;;;;;35.85;100.00;100459.88;5094145;28;19977;-70
2023/07/11 14:02:37;;;;;;;;;;;;;;;35.67;100.00;100470.97;5093397;28;19951;-70
2023/07/11 14:05:03;;;;;;;;;;;;;;;36.19;100.00;100462.56;5094476;28;19955;-72
2023/07/11 14:07:28;;;;;;;;;;;;;;;36.31;100.00;100463.63;5094403;28;19935;-72
2023/07/11 14:09:53;;;;;;;;;;;;;;;35.55;100.00;100457.44;5077078;28;20286;-71
2023/07/11 14:15:23;;;;;;;;;;;;;;;36.18;100.00;100466.22;5093079;28;19961;-70
2023/07/11 14:20:51;;;;;;;;;;;;;;;35.84;100.00;100459.06;5094124;28;19920;-71
2023/07/11 14:23:19;;;;;;;;;;;;;;;36.11;100.00;100455.56;5093661;28;19942;-71
2023/07/11 14:25:44;;;;;;;;;;;;;;;35.95;100.00;100455.09;5075848;28;20274;-70
2023/07/11 14:28:13;;;;;;;;;;;;;;;36.33;100.00;100445.72;5093618;28;19911;-71
2023/07/11 14:36:44;;;;;;;;;;;;;;;35.72;100.00;100448.19;5073796;28;19957;-72
2023/07/11 14:42:27;;;;;;;;;;;;;;;35.49;100.00;100433.56;5073570;28;19962;-72
2023/07/11 14:44:56;;;;;;;;;;;;;;;35.61;100.00;100432.84;5055071;28;19962;-70
2023/07/11 14:47:22;;;;;;;;;;;;;;;35.83;100.00;100438.06;5073826;28;20026;-69
2023/07/11 14:52:51;;;;;;;;;;;;;;;35.55;100.00;100433.63;5071482;28;20012;-70
2023/07/11 14:58:19;;;;;;;;;;;;;;;35.85;100.00;100430.75;5073081;28;19915;-70
2023/07/11 15:00:44;;;;;;;;;;;;;;;35.22;100.00;100427.22;5072833;28;19912;-69
2023/07/11 15:03:23;;;;;;;;;;;;;;;36.14;100.00;100425.22;5073313;28;19912;-69
2023/07/11 15:05:49;;;;;;;;;;;;;;;35.82;100.00;100412.59;5072602;28;19912;-69
2023/07/11 15:11:24;;;;;;;;;;;;;;;35.33;100.00;100413.47;5072885;28;19961;-70
2023/07/11 15:13:49;;;;;;;;;;;;;;;35.63;100.00;100416.78;5055023;28;20302;-70
2023/07/11 15:16:15;;;;;;;;;;;;;;;35.58;100.00;100416.53;5072298;28;19912;-69
2023/07/11 15:18:40;;;;;;;;;;;;;;;35.14;100.00;100410.66;5088118;28;19913;-70
2023/07/11 15:21:05;;;;;;;;;;;;;;;35.58;100.00;100416.53;5073198;28;20082;-70
2023/07/11 15:23:31;;;;;;;;;;;;;;;35.58;100.00;100420.00;5072464;28;19920;-70
2023/07/11 15:25:56;;;;;;;;;;;;;;;34.92;100.00;100415.91;5072255;28;19943;-70
2023/07/11 15:28:25;;;;;;;;;;;;;;;35.29;100.00;100414.88;5072615;28;19920;-70
2023/07/11 15:33:53;;;;;;;;;;;;;;;35.28;100.00;100410.56;5072845;28;20385;-71
2023/07/11 15:36:18;;;;;;;;;;;;;;;34.86;100.00;100431.75;5071964;28;19913;-72
2023/07/11 15:38:44;;;;;;;;;;;;;;;35.08;100.00;100422.84;5054281;28;19912;-70
2023/07/11 15:41:14;;;;;;;;;;;;;;;34.81;100.00;100421.72;5072364;28;19912;-73
2023/07/11 15:46:42;;;;;;;;;;;;;;;35.11;100.00;100416.31;5072336;28;19942;-73
2023/07/11 15:49:15;;;;;;;;;;;;;;;35.14;100.00;100426.53;5071850;28;20305;-73
2023/07/11 15:51:40;;;;;;;;;;;;;;;35.07;100.00;100417.72;5072256;28;19920;-73
2023/07/11 15:57:20;;;;;;;;;;;;;;;34.77;100.00;100427.56;5072505;28;19962;-69
2023/07/11 16:02:48;;;;;;;;;;;;;;;34.53;100.00;100430.56;5072243;28;19916;-68